createdAt,value
2022-10-17T00:00:02.295Z,725.197
2022-10-17T00:05:02.255Z,729.804
2022-10-17T00:10:02.302Z,611.311
2022-10-17T00:15:02.273Z,594.219
2022-10-17T00:20:02.407Z,599.594
2022-10-17T00:25:02.618Z,2337.4790000000003
2022-10-17T00:30:02.583Z,2677.426
2022-10-17T00:35:02.386Z,2753.219
2022-10-17T00:40:02.341Z,3167.1800000000003
2022-10-17T00:45:02.295Z,2610.352
2022-10-17T00:55:02.468Z,608.164
2022-10-17T01:00:02.460Z,365.834
2022-10-17T01:05:02.289Z,167.507
2022-10-17T01:10:02.337Z,175.072
2022-10-17T01:15:02.313Z,177.292
2022-10-17T01:20:02.327Z,280.382
2022-10-17T01:25:02.376Z,269.517
2022-10-17T01:30:02.391Z,253.839
2022-10-17T01:35:02.466Z,204.779
2022-10-17T01:40:02.514Z,150.547
2022-10-17T01:45:02.311Z,169.547
2022-10-17T01:50:02.339Z,169.311
2022-10-17T01:55:02.348Z,1185.442
2022-10-17T02:00:02.353Z,2308.431
2022-10-17T02:05:02.358Z,2435.922
2022-10-17T02:10:02.490Z,2667.07
2022-10-17T02:15:02.580Z,2047.433
2022-10-17T02:20:02.378Z,179.818
2022-10-17T02:25:02.423Z,143.722
2022-10-17T02:30:02.397Z,143.366
2022-10-17T02:35:02.376Z,143.459
2022-10-17T02:40:02.385Z,143.778
2022-10-17T02:45:02.470Z,172.784
2022-10-17T02:50:02.637Z,287.497
2022-10-17T02:55:02.498Z,279.374
2022-10-17T03:00:02.431Z,275.675
2022-10-17T03:05:02.445Z,200.06
2022-10-17T03:10:02.458Z,151.718
2022-10-17T03:15:02.462Z,143.40200000000002
2022-10-17T03:20:02.462Z,142.601
2022-10-17T03:25:02.625Z,2092.026
2022-10-17T03:30:02.730Z,2301.648
2022-10-17T03:35:02.470Z,2255.34
2022-10-17T03:40:02.440Z,2515.108
2022-10-17T03:45:02.445Z,3033.222
2022-10-17T03:50:02.470Z,242.767
2022-10-17T03:55:02.548Z,182.369
2022-10-17T04:00:02.600Z,181.255
2022-10-17T04:05:02.678Z,172.761
2022-10-17T04:10:02.482Z,172
2022-10-17T04:15:02.485Z,217.52100000000002
2022-10-17T04:20:02.459Z,284.36400000000003
2022-10-17T04:25:02.540Z,276.733
2022-10-17T04:30:02.545Z,226.511
2022-10-17T04:35:02.582Z,166.222
2022-10-17T04:40:02.637Z,165.667
2022-10-17T04:45:02.713Z,1747.634
2022-10-17T04:50:02.499Z,2315.256
2022-10-17T04:55:02.497Z,2334.018
2022-10-17T05:00:02.628Z,2660.652
2022-10-17T05:05:02.541Z,2543.629
2022-10-17T05:10:02.662Z,1091.854
2022-10-17T05:15:02.666Z,553.554
2022-10-17T05:20:02.522Z,589.612
2022-10-17T05:25:02.712Z,314.171
2022-10-17T05:30:02.607Z,334.236
2022-10-17T05:35:02.620Z,327.579
2022-10-17T05:40:02.553Z,325.472
2022-10-17T05:45:02.690Z,311
2022-10-17T05:50:02.725Z,263.037
2022-10-17T05:55:02.542Z,255.18800000000002
2022-10-17T06:00:02.584Z,167.689
2022-10-17T06:05:02.622Z,181.709
2022-10-17T06:10:02.554Z,1839.075
2022-10-17T06:15:02.567Z,2340.578
2022-10-17T06:20:02.795Z,2364.271
2022-10-17T06:25:02.761Z,2355.5190000000002
2022-10-17T06:30:02.664Z,2837.0190000000002
2022-10-17T06:35:02.594Z,1827.816
2022-10-17T06:40:02.618Z,218.208
2022-10-17T06:45:02.599Z,162.214
2022-10-17T06:50:02.708Z,147.399
2022-10-17T07:00:02.834Z,148.236
2022-10-17T07:05:02.687Z,148.552
2022-10-17T07:10:02.632Z,267.721
2022-10-17T07:15:02.861Z,263.293
2022-10-17T07:20:00.576Z,268.185
2022-10-17T07:25:00.699Z,202.757
2022-10-17T07:30:00.603Z,175.246
2022-10-17T07:35:00.618Z,173.272
2022-10-17T07:40:00.589Z,174.611
2022-10-17T07:45:00.622Z,173.071
2022-10-17T07:50:00.678Z,182.011
2022-10-17T07:55:00.729Z,270.551
2022-10-17T08:00:00.847Z,263.796
2022-10-17T08:05:00.610Z,228.119
2022-10-17T08:10:00.669Z,151.464
2022-10-17T08:15:00.569Z,151.577
2022-10-17T08:20:00.622Z,150.185
2022-10-17T08:25:00.591Z,148.14000000000001
2022-10-17T08:30:00.709Z,172.988
2022-10-17T08:35:00.798Z,272.425
2022-10-17T08:40:00.701Z,305.914
2022-10-17T08:45:00.639Z,299.734
2022-10-17T08:50:00.636Z,243.18200000000002
2022-10-17T08:55:00.700Z,176.937
2022-10-17T09:00:00.681Z,175.235
2022-10-17T09:05:00.774Z,173.329
2022-10-17T09:10:00.792Z,172.205
2022-10-17T09:15:00.659Z,170.268
2022-10-17T09:20:00.717Z,270.188
2022-10-17T09:25:00.756Z,263.67
2022-10-17T09:30:00.728Z,258.814
2022-10-17T09:35:00.765Z,166.774
2022-10-17T09:40:00.932Z,148.226
2022-10-17T09:45:00.681Z,148.841
2022-10-17T09:50:00.683Z,149.011
2022-10-17T09:55:01.868Z,171.45000000000002
2022-10-17T10:00:00.842Z,209.752
2022-10-17T10:05:05.340Z,295.877
2022-10-17T10:10:00.781Z,284.591
2022-10-17T10:15:00.856Z,265.757
2022-10-17T10:20:00.709Z,153.471
2022-10-17T10:25:00.734Z,152.871
2022-10-17T10:30:01.083Z,154.54500000000002
2022-10-17T10:35:00.724Z,151.025
2022-10-17T10:40:00.744Z,149.293
2022-10-17T10:45:00.805Z,218.304
2022-10-17T10:50:00.905Z,267.309
2022-10-17T10:55:00.752Z,262.752
2022-10-17T11:00:00.887Z,247.55100000000002
2022-10-17T11:05:00.759Z,175.57
2022-10-17T11:10:00.769Z,175.096
2022-10-17T11:15:00.787Z,173.246
2022-10-17T11:20:00.924Z,175.93800000000002
2022-10-17T11:25:00.960Z,182.17000000000002
2022-10-17T11:30:00.773Z,270.855
2022-10-17T11:35:00.822Z,301.108
2022-10-17T11:40:00.832Z,269.586
2022-10-17T11:45:00.808Z,196.219
2022-10-17T11:51:59.492Z,149.061
2022-10-17T11:55:00.975Z,171.744
2022-10-17T12:00:02.223Z,174.394
2022-10-17T12:05:00.789Z,174.935
2022-10-17T12:40:00.882Z,151.934
2022-10-17T12:45:00.844Z,150.52700000000002
2022-10-17T12:50:00.846Z,148.121
2022-10-17T12:55:11.365Z,176.234
2022-10-17T13:00:01.433Z,293.96
2022-10-17T13:05:00.848Z,286.035
2022-10-17T13:10:00.915Z,280.156
2022-10-17T13:15:00.860Z,203.491
2022-10-17T13:20:00.920Z,156.989
2022-10-17T13:25:00.873Z,146.975
2022-10-17T13:30:01.039Z,146.993
2022-10-17T13:35:01.027Z,147.357
2022-10-17T13:40:07.321Z,147.655
2022-10-17T13:45:00.878Z,262.535
2022-10-17T13:50:00.912Z,262.1
2022-10-17T13:55:00.938Z,257.596
2022-10-17T14:00:00.914Z,180.433
2022-10-17T14:05:17.582Z,168.516
2022-10-17T14:10:01.065Z,169.359
2022-10-17T14:15:10.942Z,178.175
2022-10-17T14:20:16.331Z,219.275
2022-10-17T14:25:02.541Z,235.681
2022-10-17T14:30:00.906Z,339.113
2022-10-17T14:35:18.091Z,323.479
2022-10-17T14:40:01.019Z,320.97
2022-10-17T14:45:01.042Z,222.473
2022-10-17T14:50:00.969Z,206.838
2022-10-17T14:55:01.021Z,189.088
2022-10-17T15:00:00.973Z,190.464
2022-10-17T15:05:01.026Z,183.532
2022-10-17T15:10:01.010Z,212.638
2022-10-17T15:15:01.107Z,321.117
2022-10-17T15:20:01.112Z,314.692
2022-10-17T15:25:00.999Z,301.815
2022-10-17T15:30:02.147Z,222.584
2022-10-17T15:35:00.980Z,209.252
2022-10-17T15:40:01.007Z,222.868
2022-10-17T15:45:01.048Z,254.692
2022-10-17T15:50:01.118Z,234.561
2022-10-17T15:55:02.583Z,250.383
2022-10-17T16:00:01.017Z,410.812
2022-10-17T16:05:01.050Z,406.975
2022-10-17T16:10:01.049Z,405.801
2022-10-17T16:15:01.002Z,1026.7160000000001
2022-10-17T16:20:01.044Z,2045.7
2022-10-17T16:25:01.140Z,2153.842
2022-10-17T16:30:01.255Z,986.8910000000001
2022-10-17T16:35:01.088Z,2358.3070000000002
2022-10-17T16:40:01.050Z,2654.728
2022-10-17T16:45:01.007Z,2762.709
2022-10-17T16:50:01.024Z,3082.424
2022-10-17T16:55:01.076Z,3128.356
2022-10-17T17:00:01.263Z,608.962
2022-10-17T17:05:01.215Z,1162.3790000000001
2022-10-17T17:10:01.097Z,366.097
2022-10-17T17:15:01.048Z,329.91200000000003
2022-10-17T17:20:01.124Z,1161.124
2022-10-17T17:25:01.145Z,443.06600000000003
2022-10-17T17:30:01.229Z,536.657
2022-10-17T17:35:01.230Z,540.244
2022-10-17T17:40:01.105Z,457.71000000000004
2022-10-17T17:45:01.086Z,343.577
2022-10-17T17:50:01.085Z,348.42400000000004
2022-10-17T17:55:01.079Z,352.106
2022-10-17T18:00:01.143Z,353.116
2022-10-17T18:05:01.256Z,348.592
2022-10-17T18:10:01.359Z,414.653
2022-10-17T18:15:01.093Z,458.35200000000003
2022-10-17T18:20:01.107Z,999.727
2022-10-17T18:25:01.146Z,1034.18
2022-10-17T18:30:01.185Z,341.409
2022-10-17T18:35:01.164Z,354.053
2022-10-17T18:40:01.277Z,361.382
2022-10-17T18:45:01.270Z,1902.75
2022-10-17T18:50:01.148Z,2692.995
2022-10-17T18:55:01.164Z,2853.1330000000003
2022-10-17T19:00:01.177Z,3260.513
2022-10-17T19:05:01.180Z,1218.2540000000001
2022-10-17T19:10:01.208Z,401.95300000000003
2022-10-17T19:15:01.472Z,314.053
2022-10-17T19:20:01.156Z,285.009
2022-10-17T19:25:01.181Z,431.141
2022-10-17T19:30:01.202Z,291.169
2022-10-17T19:35:01.164Z,293.395
2022-10-17T19:40:01.220Z,305.463
2022-10-17T19:45:01.276Z,403.053
2022-10-17T19:50:01.447Z,555.027
2022-10-17T19:55:01.246Z,384.118
2022-10-17T20:00:01.177Z,335.504
2022-10-17T20:05:17.407Z,3111.384
2022-10-17T20:10:01.232Z,7747.009
2022-10-17T20:15:01.210Z,7760.71
2022-10-17T20:20:02.375Z,7750.983
2022-10-17T20:25:01.668Z,7739.87
2022-10-17T20:30:01.236Z,7847.476000000001
2022-10-17T20:35:01.195Z,7872.636
2022-10-17T20:40:22.973Z,7872.16
2022-10-17T20:45:01.249Z,7809.148
2022-10-17T20:50:01.285Z,7792.419
2022-10-17T20:55:01.420Z,7799.591
2022-10-17T21:00:01.242Z,7815.028
2022-10-17T21:05:01.251Z,7798.32
2022-10-17T21:10:12.302Z,8032.714
2022-10-17T21:15:01.283Z,10217.614
2022-10-17T21:20:01.326Z,10235.609
2022-10-17T21:25:01.481Z,10471.424
2022-10-17T21:30:01.347Z,10144.742
2022-10-17T21:35:01.536Z,7744.876
2022-10-17T21:40:01.299Z,7717.081
2022-10-17T21:45:01.597Z,7639.5560000000005
2022-10-17T21:50:01.338Z,7626.637
2022-10-17T21:55:02.199Z,7645.318
2022-10-17T22:00:01.475Z,7769.35
2022-10-17T22:05:01.323Z,5719.639
2022-10-17T22:10:01.401Z,280.14
2022-10-17T22:15:01.467Z,174.812
2022-10-17T22:20:01.476Z,168.685
2022-10-17T22:25:01.527Z,146.428
2022-10-17T22:30:01.304Z,145.852
2022-10-17T22:35:01.328Z,146.279
2022-10-17T22:40:01.381Z,186.497
2022-10-17T22:45:01.399Z,265.498
2022-10-17T22:50:01.551Z,259.205
2022-10-17T22:55:01.391Z,220.371
2022-10-17T23:00:01.399Z,170.155
2022-10-17T23:05:01.371Z,169.727
2022-10-17T23:10:01.390Z,172.556
2022-10-17T23:15:01.469Z,168.178
2022-10-17T23:20:01.522Z,1418.134
2022-10-17T23:25:01.379Z,2548.119
2022-10-17T23:30:01.376Z,2613.975
2022-10-17T23:35:01.337Z,3076.205
2022-10-17T23:40:01.427Z,751.8720000000001
2022-10-17T23:45:01.509Z,169.15
2022-10-17T23:50:01.546Z,152.625
2022-10-17T23:55:01.456Z,145.508
